Time;durP1;ratioP1;P1;durP2;ratioP2;P2;SDS_P1;SDS_P2;PMS_P1;PMS_P2;Temp;Humidity;BMP_temperature;BMP_pressure;BME280_temperature;BME280_humidity;BME280_pressure;Samples;Min_cycle;Max_cycle;Signal;HPM_P1;HPM_P2
2022/11/30 00:01:54;;;;;;;115.20;36.28;;;;;;;7.88;100.00;101178.47;8354952;28;20056;-52
2022/11/30 00:05:54;;;;;;;132.43;36.50;;;;;;;7.92;100.00;101185.34;8353421;28;20182;-51
2022/11/30 00:09:55;;;;;;;128.05;36.42;;;;;;;7.95;100.00;101182.44;8354488;28;20060;-55
2022/11/30 00:13:55;;;;;;;137.40;38.03;;;;;;;7.91;100.00;101183.66;8355294;28;20508;-52
2022/11/30 00:17:56;;;;;;;142.15;37.97;;;;;;;7.95;100.00;101184.25;8355209;28;20048;-55
2022/11/30 00:21:57;;;;;;;128.27;38.42;;;;;;;7.95;100.00;101184.25;8347858;28;20468;-54
2022/11/30 00:26:01;;;;;;;141.30;38.78;;;;;;;7.96;100.00;101183.28;8345739;28;20032;-55
2022/11/30 00:30:02;;;;;;;136.57;38.00;;;;;;;7.95;100.00;101170.81;8354516;28;20277;-51
2022/11/30 00:34:03;;;;;;;152.40;39.97;;;;;;;8.01;100.00;101179.31;8358841;28;20494;-52
2022/11/30 00:38:03;;;;;;;146.50;39.85;;;;;;;7.96;100.00;101178.78;8374845;28;20488;-52
2022/11/30 00:42:04;;;;;;;145.20;39.05;;;;;;;7.97;100.00;101177.78;8371280;28;20573;-53
2022/11/30 00:46:05;;;;;;;136.48;39.67;;;;;;;7.95;100.00;101179.75;8373120;28;20457;-55
2022/11/30 00:50:06;;;;;;;153.85;40.15;;;;;;;7.97;100.00;101176.97;8373623;28;20033;-52
2022/11/30 00:54:07;;;;;;;150.82;39.92;;;;;;;7.93;100.00;101181.69;8372517;28;20056;-51
2022/11/30 00:58:08;;;;;;;154.02;38.83;;;;;;;7.98;100.00;101184.94;8376876;28;20045;-52
2022/11/30 01:02:08;;;;;;;155.18;39.67;;;;;;;7.95;100.00;101179.75;8390426;28;20131;-51
2022/11/30 01:06:09;;;;;;;151.95;38.00;;;;;;;7.99;100.00;101183.06;8373210;28;20044;-52
2022/11/30 01:10:10;;;;;;;159.10;39.15;;;;;;;8.01;100.00;101184.72;8388741;28;20037;-51
2022/11/30 01:14:10;;;;;;;164.52;39.72;;;;;;;8.02;100.00;101178.34;8390612;28;20098;-51
2022/11/30 01:18:11;;;;;;;165.20;43.75;;;;;;;8.03;100.00;101182.75;8390204;28;20036;-51
2022/11/30 01:22:11;;;;;;;190.60;43.90;;;;;;;8.04;100.00;101184.50;8389761;28;20036;-52
2022/11/30 01:26:13;;;;;;;185.45;45.72;;;;;;;8.04;100.00;101189.00;8390360;28;20494;-52
2022/11/30 01:30:13;;;;;;;194.00;44.60;;;;;;;8.04;100.00;101189.00;8389440;28;20071;-53
2022/11/30 01:34:14;;;;;;;189.18;43.28;;;;;;;8.02;100.00;101181.03;8389496;28;20036;-51
2022/11/30 01:38:14;;;;;;;176.40;41.85;;;;;;;8.02;100.00;101178.34;8388794;28;20044;-53
2022/11/30 01:42:18;;;;;;;180.05;41.95;;;;;;;8.03;100.00;101182.75;8389461;28;20392;-54
2022/11/30 01:46:43;;;;;;;187.40;42.17;;;;;;;8.08;100.00;101182.44;8389299;28;20029;-51
2022/11/30 01:50:45;;;;;;;184.35;41.65;;;;;;;8.06;100.00;101185.22;8388364;28;20066;-55
2022/11/30 01:54:54;;;;;;;175.35;41.58;;;;;;;8.03;100.00;101180.06;8387889;28;20377;-51
2022/11/30 01:58:54;;;;;;;184.73;41.65;;;;;;;8.06;100.00;101182.53;8388345;28;20067;-52
2022/11/30 02:03:03;;;;;;;171.07;42.95;;;;;;;8.07;100.00;101184.28;8388607;28;20533;-54
2022/11/30 02:07:07;;;;;;;179.48;42.17;;;;;;;8.06;100.00;101182.53;8387805;28;20033;-51
2022/11/30 02:11:12;;;;;;;209.75;45.55;;;;;;;8.11;100.00;101184.06;8386248;28;20292;-53
2022/11/30 02:15:20;;;;;;;214.60;44.35;;;;;;;8.11;100.00;101175.97;8387996;28;20036;-51
2022/11/30 02:20:01;;;;;;;217.52;45.53;;;;;;;8.11;100.00;101178.69;8393573;28;20077;-51
2022/11/30 02:24:35;;;;;;;229.85;47.30;;;;;;;8.10;100.00;101177.81;8387534;28;20040;-51
2022/11/30 02:33:15;;;;;;;215.73;46.80;;;;;;;8.11;100.00;101175.97;8384744;27;20382;-49
2022/11/30 02:37:17;;;;;;;222.90;47.75;;;;;;;8.09;100.00;101174.25;8363932;28;20047;-52
2022/11/30 02:41:17;;;;;;;235.23;47.83;;;;;;;8.12;100.00;101180.38;8365076;28;20037;-52
2022/11/30 02:45:28;;;;;;;236.45;47.88;;;;;;;8.12;100.00;101166.91;8365857;28;20661;-53
2022/11/30 02:49:53;;;;;;;210.02;47.50;;;;;;;8.15;100.00;101158.63;8365441;28;20112;-51
2022/11/30 02:53:54;;;;;;;215.75;44.83;;;;;;;8.15;100.00;101166.72;8363634;28;20041;-55
2022/11/30 02:57:54;;;;;;;226.35;45.92;;;;;;;8.18;100.00;101177.25;8364718;28;20049;-54
2022/11/30 03:01:55;;;;;;;225.00;44.88;;;;;;;8.17;100.00;101167.47;8365084;28;20040;-55
2022/11/30 03:05:55;;;;;;;207.77;41.72;;;;;;;8.16;100.00;101166.59;8365059;28;20131;-51
2022/11/30 03:09:58;;;;;;;177.80;41.55;;;;;;;8.17;100.00;101168.31;8362323;28;20048;-50
2022/11/30 03:13:59;;;;;;;150.35;37.45;;;;;;;8.22;100.00;101165.28;8364745;28;20123;-50
2022/11/30 03:18:02;;;;;;;146.15;35.20;;;;;;;8.19;100.00;101162.81;8363270;28;20258;-54
2022/11/30 03:22:02;;;;;;;142.00;34.63;;;;;;;8.21;100.00;101175.22;8363914;28;20029;-53
2022/11/30 03:26:05;;;;;;;153.05;35.90;;;;;;;8.22;100.00;101174.28;8364438;28;20044;-51
2022/11/30 03:30:06;;;;;;;150.48;33.55;;;;;;;8.17;100.00;101171.00;8364133;28;20040;-52
2022/11/30 03:34:07;;;;;;;146.00;33.40;;;;;;;8.19;100.00;101179.84;8361626;28;20501;-52
2022/11/30 03:38:08;;;;;;;136.52;31.25;;;;;;;8.21;100.00;101179.72;8361168;28;20041;-54
2022/11/30 03:42:08;;;;;;;131.95;32.80;;;;;;;8.22;100.00;101176.06;8355868;28;20087;-50
2022/11/30 03:46:09;;;;;;;149.20;32.63;;;;;;;8.27;100.00;101190.09;8341347;28;20041;-49
2022/11/30 03:50:10;;;;;;;154.68;31.90;;;;;;;8.26;100.00;101183.00;8371688;28;20037;-52
2022/11/30 03:54:11;;;;;;;155.77;33.17;;;;;;;8.31;100.00;101197.00;8342637;28;20091;-52
2022/11/30 03:58:11;;;;;;;168.70;34.28;;;;;;;8.26;100.00;101200.00;8329616;28;20041;-53
2022/11/30 04:02:12;;;;;;;157.55;34.15;;;;;;;8.30;100.00;101200.66;8341468;28;20398;-51
2022/11/30 04:06:13;;;;;;;166.77;36.63;;;;;;;8.27;100.00;101195.50;8341215;28;20129;-51
2022/11/30 04:10:14;;;;;;;174.55;34.60;;;;;;;8.28;100.00;101202.59;8339444;28;20041;-50
2022/11/30 04:14:14;;;;;;;181.27;36.55;;;;;;;8.26;100.00;101199.16;8341362;28;20056;-50
2022/11/30 04:18:16;;;;;;;211.75;40.70;;;;;;;8.26;100.00;101199.16;8341618;28;20096;-54
2022/11/30 04:22:16;;;;;;;206.82;38.58;;;;;;;8.26;100.00;101199.16;8341687;28;20043;-52
2022/11/30 04:26:17;;;;;;;192.15;38.95;;;;;;;8.27;100.00;101193.66;8341655;28;20061;-52
2022/11/30 04:30:18;;;;;;;218.23;39.72;;;;;;;8.25;100.00;101187.53;8338567;28;20049;-51
2022/11/30 04:34:18;;;;;;;208.43;40.50;;;;;;;8.20;100.00;101178.03;8332629;28;20037;-50
2022/11/30 04:38:19;;;;;;;255.45;40.80;;;;;;;8.26;100.00;101191.09;8356184;28;20035;-50
2022/11/30 04:42:19;;;;;;;226.63;40.17;;;;;;;8.26;100.00;101183.00;8355057;28;20379;-52
2022/11/30 04:46:20;;;;;;;213.55;38.75;;;;;;;8.25;100.00;101182.13;8340571;28;20086;-51
2022/11/30 04:50:21;;;;;;;188.73;40.47;;;;;;;8.28;100.00;101191.81;8351722;28;20033;-53
2022/11/30 04:54:21;;;;;;;196.55;39.33;;;;;;;8.27;100.00;101184.72;8339137;28;20469;-54
2022/11/30 04:58:22;;;;;;;194.63;38.97;;;;;;;8.25;100.00;101186.66;8336830;28;20102;-54
2022/11/30 05:02:22;;;;;;;210.82;38.03;;;;;;;8.26;100.00;101189.22;8352348;28;20470;-54
2022/11/30 05:06:23;;;;;;;203.80;39.15;;;;;;;8.25;100.00;101192.91;8339125;28;20044;-51
2022/11/30 05:10:25;;;;;;;208.60;40.40;;;;;;;8.22;100.00;101192.22;8339395;28;20041;-54
2022/11/30 05:14:25;;;;;;;202.82;38.22;;;;;;;8.22;100.00;101194.91;8340030;28;20049;-50
2022/11/30 05:18:26;;;;;;;206.80;41.00;;;;;;;8.23;100.00;101207.47;8340199;28;20040;-51
2022/11/30 05:22:26;;;;;;;217.13;42.58;;;;;;;8.25;100.00;101202.81;8339394;28;20048;-52
2022/11/30 05:26:27;;;;;;;202.57;40.55;;;;;;;8.22;100.00;101198.50;8334186;28;20140;-55
2022/11/30 05:30:27;;;;;;;194.50;41.38;;;;;;;8.24;100.00;101206.50;8338132;28;20041;-51
2022/11/30 05:34:28;;;;;;;215.15;42.42;;;;;;;8.26;100.00;101209.94;8338511;28;20079;-53
2022/11/30 05:38:28;;;;;;;196.07;42.13;;;;;;;8.26;100.00;101205.41;8339046;28;20041;-49
2022/11/30 05:42:29;;;;;;;204.43;43.58;;;;;;;8.24;100.00;101211.88;8341660;28;20044;-50
2022/11/30 05:46:29;;;;;;;197.77;43.88;;;;;;;8.25;100.00;101224.34;8338948;28;20037;-52
2022/11/30 05:50:30;;;;;;;154.77;40.72;;;;;;;8.21;100.00;101222.84;8338393;28;20037;-53
2022/11/30 05:54:32;;;;;;;139.27;38.53;;;;;;;8.11;100.00;101227.16;8336350;28;20589;-50
2022/11/30 05:58:33;;;;;;;134.10;37.47;;;;;;;8.08;100.00;101221.00;8353554;28;20083;-50
2022/11/30 06:02:34;;;;;;;154.43;40.83;;;;;;;8.06;100.00;101230.16;8354735;28;20098;-51
2022/11/30 06:06:34;;;;;;;139.65;39.20;;;;;;;8.02;100.00;101229.50;8354938;28;20125;-50
2022/11/30 06:10:35;;;;;;;143.77;40.15;;;;;;;7.98;100.00;101232.53;8353279;28;20116;-50
2022/11/30 06:14:36;;;;;;;137.73;40.90;;;;;;;7.98;100.00;101228.00;8354140;28;20195;-50
2022/11/30 06:18:37;;;;;;;140.68;39.03;;;;;;;7.98;100.00;101233.38;8352828;28;20037;-53
2022/11/30 06:22:37;;;;;;;135.75;40.63;;;;;;;7.97;100.00;101231.66;8350602;28;20091;-51
2022/11/30 06:26:38;;;;;;;125.65;39.15;;;;;;;7.96;100.00;101246.09;8354497;28;20092;-53
2022/11/30 06:30:39;;;;;;;120.50;37.58;;;;;;;7.94;100.00;101237.25;8353356;28;20045;-51
2022/11/30 06:34:39;;;;;;;125.35;39.00;;;;;;;7.98;100.00;101238.78;8354714;28;20412;-54
2022/11/30 06:38:40;;;;;;;119.72;39.97;;;;;;;7.91;100.00;101237.47;8355416;28;20493;-52
2022/11/30 06:42:40;;;;;;;116.53;39.58;;;;;;;7.88;100.00;101248.47;8355740;28;20033;-54
2022/11/30 06:46:41;;;;;;;125.53;40.83;;;;;;;7.89;100.00;101250.19;8348251;28;20037;-52
2022/11/30 06:50:41;;;;;;;112.45;38.75;;;;;;;7.89;100.00;101260.94;8356137;28;20091;-52
2022/11/30 06:54:42;;;;;;;105.03;37.92;;;;;;;7.88;100.00;101261.94;8356169;28;20505;-51
2022/11/30 06:58:42;;;;;;;101.07;35.67;;;;;;;7.86;100.00;101266.53;8351488;28;20047;-51
2022/11/30 07:02:43;;;;;;;107.00;37.42;;;;;;;7.89;100.00;101277.09;8356382;28;20079;-52
2022/11/30 07:06:43;;;;;;;99.25;36.65;;;;;;;7.87;100.00;101279.03;8356490;28;20044;-54
2022/11/30 07:10:46;;;;;;;82.45;34.33;;;;;;;7.95;100.00;101281.19;8355481;28;20041;-53
2022/11/30 07:14:46;;;;;;;96.97;36.03;;;;;;;7.92;100.00;101276.88;8348732;28;20116;-54
2022/11/30 07:18:47;;;;;;;97.95;38.78;;;;;;;7.90;100.00;101284.19;8357902;28;20483;-54
2022/11/30 07:22:47;;;;;;;98.30;38.28;;;;;;;7.88;100.00;101286.16;8355593;28;20113;-55
2022/11/30 07:26:48;;;;;;;97.18;39.60;;;;;;;7.88;100.00;101286.16;8393552;28;20037;-55
2022/11/30 07:30:48;;;;;;;93.93;38.22;;;;;;;7.86;100.00;101288.06;8361534;28;20053;-54
2022/11/30 07:34:48;;;;;;;97.53;37.92;;;;;;;7.82;100.00;101291.94;8361520;28;20037;-55
2022/11/30 07:38:49;;;;;;;93.85;37.03;;;;;;;7.80;100.00;101293.00;8361300;28;20475;-55
2022/11/30 07:42:54;;;;;;;91.60;36.92;;;;;;;7.80;100.00;101304.66;8360109;28;20040;-51
2022/11/30 07:46:54;;;;;;;92.70;37.65;;;;;;;7.80;100.00;101304.66;8359392;28;20094;-53
2022/11/30 07:51:03;;;;;;;84.85;33.97;;;;;;;7.78;100.00;101314.63;8360118;28;20063;-55
2022/11/30 07:55:04;;;;;;;94.93;36.63;;;;;;;7.70;100.00;101317.00;8361232;28;20087;-52
2022/11/30 07:59:05;;;;;;;96.25;36.60;;;;;;;7.75;100.00;101317.53;8361422;28;20071;-54
2022/11/30 08:03:05;;;;;;;96.72;36.92;;;;;;;7.77;100.00;101321.00;8362998;28;20128;-53
2022/11/30 08:07:06;;;;;;;86.03;34.72;;;;;;;7.79;100.00;101319.09;8361540;28;20551;-55
2022/11/30 08:11:08;;;;;;;88.03;36.47;;;;;;;7.77;100.00;101314.75;8360601;28;20128;-54
2022/11/30 08:15:09;;;;;;;84.63;34.45;;;;;;;7.81;100.00;101325.19;8359927;28;20478;-55
2022/11/30 08:19:10;;;;;;;87.07;34.97;;;;;;;7.76;100.00;101321.09;8360403;28;20483;-55
2022/11/30 08:23:11;;;;;;;90.57;34.85;;;;;;;7.82;100.00;101324.25;8360447;28;20099;-54
2022/11/30 08:27:11;;;;;;;86.90;33.30;;;;;;;7.85;100.00;101324.06;8360487;28;20063;-54
2022/11/30 08:31:15;;;;;;;89.80;33.88;;;;;;;7.92;100.00;101325.34;8359730;28;20045;-54
2022/11/30 08:35:16;;;;;;;86.25;34.10;;;;;;;7.97;100.00;101333.97;8360009;28;20364;-53
2022/11/30 08:39:16;;;;;;;87.05;35.33;;;;;;;7.97;100.00;101338.50;8360039;28;20033;-54
2022/11/30 08:43:17;;;;;;;83.22;32.13;;;;;;;7.98;100.00;101334.84;8360139;28;20036;-54
2022/11/30 08:47:18;;;;;;;85.85;35.35;;;;;;;8.02;100.00;101342.59;8359662;28;20033;-55
2022/11/30 08:51:19;;;;;;;83.15;33.28;;;;;;;8.00;100.00;101339.13;8359102;28;20041;-55
2022/11/30 08:55:20;;;;;;;76.50;32.58;;;;;;;8.03;100.00;101355.09;8359024;28;20041;-53
2022/11/30 08:59:20;;;;;;;85.88;33.08;;;;;;;8.02;100.00;101347.97;8359354;28;20049;-55
2022/11/30 09:03:21;;;;;;;76.82;32.15;;;;;;;8.01;100.00;101350.78;8359352;28;20140;-51
2022/11/30 09:07:21;;;;;;;78.47;31.75;;;;;;;8.00;100.00;101349.06;8358875;28;20502;-53
2022/11/30 09:11:29;;;;;;;78.00;30.23;;;;;;;7.97;100.00;101347.41;8357310;28;20041;-54
2022/11/30 09:15:31;;;;;;;70.75;29.58;;;;;;;7.99;100.00;101358.97;8358600;28;20033;-55
2022/11/30 09:19:31;;;;;;;68.65;28.95;;;;;;;8.02;100.00;101364.13;8358636;28;20037;-54
2022/11/30 09:23:32;;;;;;;68.13;29.95;;;;;;;7.98;100.00;101361.75;8358623;28;20073;-54
2022/11/30 09:27:33;;;;;;;70.22;29.73;;;;;;;8.03;100.00;101370.41;8358284;28;20491;-53
2022/11/30 09:31:33;;;;;;;75.30;29.55;;;;;;;7.97;100.00;101366.25;8358414;28;20072;-52
2022/11/30 09:35:34;;;;;;;64.68;28.63;;;;;;;7.95;100.00;101378.13;8357932;28;20044;-55
2022/11/30 09:39:34;;;;;;;62.97;28.27;;;;;;;7.93;100.00;101372.84;8357497;28;20046;-54
2022/11/30 09:48:26;;;;;;;65.72;30.45;;;;;;;7.93;100.00;101380.06;8318110;28;20468;-53
2022/11/30 09:52:36;;;;;;;66.82;30.77;;;;;;;7.87;100.00;101375.09;8310131;28;20053;-53
2022/11/30 09:56:39;;;;;;;70.30;31.58;;;;;;;7.90;100.00;101364.97;8299653;28;20041;-55
2022/11/30 10:00:39;;;;;;;71.03;30.92;;;;;;;7.91;100.00;101372.09;8317240;28;20556;-54
2022/11/30 10:04:40;;;;;;;65.50;29.65;;;;;;;8.00;100.00;101360.69;8318098;28;20352;-55
2022/11/30 10:09:05;;;;;;;74.63;31.77;;;;;;;7.92;100.00;101371.13;8319228;28;20069;-55
2022/11/30 10:17:53;;;;;;;80.82;33.13;;;;;;;7.96;100.00;101369.94;8419040;27;20456;-53
2022/11/30 10:22:23;;;;;;;73.00;31.48;;;;;;;8.00;100.00;101360.69;8412243;28;20040;-53
2022/11/30 10:26:33;;;;;;;79.95;33.80;;;;;;;7.95;100.00;101360.16;8384620;28;20032;-51
2022/11/30 10:30:35;;;;;;;82.53;34.45;;;;;;;7.92;100.00;101354.97;8384985;28;20427;-55
2022/11/30 10:34:36;;;;;;;77.72;34.13;;;;;;;7.90;100.00;101359.56;8360684;28;20049;-53
2022/11/30 10:38:45;;;;;;;84.60;36.20;;;;;;;7.91;100.00;101353.25;8351749;28;20038;-51
2022/11/30 10:42:51;;;;;;;83.43;35.65;;;;;;;7.92;100.00;101357.66;8351906;28;20176;-53
2022/11/30 10:46:59;;;;;;;87.85;36.95;;;;;;;7.89;100.00;101349.78;8324289;28;20733;-51
2022/11/30 10:51:02;;;;;;;83.60;35.33;;;;;;;7.90;100.00;101354.19;8351684;28;20041;-54
2022/11/30 10:55:14;;;;;;;86.75;36.65;;;;;;;7.92;100.00;101354.09;8351243;28;20060;-55
2022/11/30 10:59:38;;;;;;;81.05;36.55;;;;;;;7.85;100.00;101361.75;8369616;28;20057;-51
2022/11/30 11:03:38;;;;;;;;;;;;;;;7.89;100.00;101357.88;8384692;28;20040;-52
2022/11/30 11:08:15;;;;;;;80.53;35.50;;;;;;;7.90;100.00;101350.66;8383152;28;19925;-51
2022/11/30 11:12:21;;;;;;;85.97;35.22;;;;;;;7.90;100.00;101348.81;8383071;28;20098;-51
2022/11/30 11:16:21;;;;;;;84.80;37.15;;;;;;;7.91;100.00;101350.56;8367609;28;20039;-53
2022/11/30 11:20:42;;;;;;;81.63;34.55;;;;;;;7.96;100.00;101343.00;8417247;28;20036;-50
2022/11/30 11:24:43;;;;;;;82.18;34.15;;;;;;;7.95;100.00;101346.69;8386963;28;20036;-55
2022/11/30 11:28:48;;;;;;;83.88;35.05;;;;;;;7.90;100.00;101348.81;8363304;28;20041;-53
2022/11/30 11:33:12;;;;;;;81.78;34.17;;;;;;;7.91;100.00;101347.88;8361364;28;20491;-50
2022/11/30 11:37:16;;;;;;;;;;;;;;;7.94;100.00;101355.69;8361319;28;20486;-55
2022/11/30 11:41:24;;;;;;;78.88;32.80;;;;;;;7.94;100.00;101360.25;8361543;28;19921;-52
2022/11/30 11:45:28;;;;;;;79.45;33.72;;;;;;;7.94;100.00;101355.69;8333551;28;20029;-55
2022/11/30 11:49:33;;;;;;;78.80;33.25;;;;;;;7.94;100.00;101357.56;8360804;28;20166;-53
2022/11/30 11:53:40;;;;;;;72.22;32.47;;;;;;;7.91;100.00;101355.94;8360606;28;20061;-52
2022/11/30 11:58:01;;;;;;;81.93;33.78;;;;;;;7.91;100.00;101361.31;8360466;28;20040;-52
2022/11/30 12:02:28;;;;;;;75.25;30.88;;;;;;;7.99;100.00;101350.00;8360559;28;20079;-55
2022/11/30 12:06:31;;;;;;;83.55;34.60;;;;;;;7.90;100.00;101359.56;8342313;28;20044;-51
2022/11/30 12:10:37;;;;;;;77.22;33.10;;;;;;;7.92;100.00;101352.28;8360156;28;20040;-52
2022/11/30 12:14:38;;;;;;;76.97;32.15;;;;;;;7.91;100.00;101350.56;8359718;28;20041;-52
2022/11/30 12:18:53;;;;;;;76.32;32.75;;;;;;;7.89;100.00;101360.56;8390175;28;20036;-54
2022/11/30 12:23:18;;;;;;;81.53;32.22;;;;;;;7.93;100.00;101354.00;8377922;28;20033;-53
2022/11/30 12:36:19;;;;;;;84.90;36.25;;;;;;;7.87;100.00;101343.63;8318888;28;20364;-51
2022/11/30 12:40:45;;;;;;;91.13;38.72;;;;;;;7.89;100.00;101347.09;8318651;28;20159;-50
2022/11/30 12:44:59;;;;;;;89.78;37.20;;;;;;;7.91;100.00;101349.69;8318453;28;20507;-52
2022/11/30 12:49:27;;;;;;;96.72;39.05;;;;;;;7.90;100.00;101358.75;8316465;28;20121;-50
2022/11/30 12:53:38;;;;;;;85.75;36.67;;;;;;;7.87;100.00;101359.78;8317002;28;20053;-52
2022/11/30 13:02:50;;;;;;;93.28;38.05;;;;;;;7.92;100.00;101351.41;8418514;27;20382;-51
2022/11/30 13:07:00;;;;;;;85.90;36.97;;;;;;;7.89;100.00;101340.84;8399322;28;20037;-52
2022/11/30 13:11:07;;;;;;;91.68;37.78;;;;;;;7.84;100.00;101351.06;8383509;28;20056;-50
2022/11/30 13:15:16;;;;;;;94.55;37.85;;;;;;;7.82;100.00;101356.56;8381627;28;20047;-52
2022/11/30 13:19:38;;;;;;;91.93;38.63;;;;;;;7.81;100.00;101352.13;8349965;28;20049;-51
2022/11/30 13:23:51;;;;;;;96.90;39.13;;;;;;;7.81;100.00;101352.13;8380273;28;20041;-50
2022/11/30 13:28:02;;;;;;;97.75;39.80;;;;;;;7.83;100.00;101346.63;8348775;28;20037;-54
2022/11/30 13:32:09;;;;;;;96.35;39.53;;;;;;;7.81;100.00;101348.59;8353427;28;20495;-50
2022/11/30 13:40:40;;;;;;;93.00;38.63;;;;;;;7.83;100.00;101347.50;8404282;27;20551;-53
2022/11/30 13:44:42;;;;;;;94.43;39.95;;;;;;;7.86;100.00;101341.91;8400429;27;20112;-53
2022/11/30 13:48:44;;;;;;;103.60;40.22;;;;;;;7.88;100.00;101345.38;8400006;27;20073;-50
2022/11/30 13:53:07;;;;;;;92.47;38.45;;;;;;;7.91;100.00;101342.47;8400177;27;20048;-50
2022/11/30 13:57:17;;;;;;;96.97;39.53;;;;;;;7.95;100.00;101351.19;8373600;27;20573;-50
2022/11/30 14:01:23;;;;;;;88.65;37.88;;;;;;;7.92;100.00;101352.28;8366998;28;20060;-51
2022/11/30 14:05:36;;;;;;;93.50;39.05;;;;;;;7.93;100.00;101356.69;8365955;28;20037;-50
2022/11/30 14:09:54;;;;;;;93.80;38.87;;;;;;;7.94;100.00;101355.69;8366354;28;20041;-50
2022/11/30 14:13:54;;;;;;;94.18;37.60;;;;;;;7.96;100.00;101371.75;8365510;28;20067;-53
2022/11/30 14:17:56;;;;;;;96.18;39.70;;;;;;;7.97;100.00;101374.34;8366047;28;20517;-50
2022/11/30 14:21:57;;;;;;;89.10;35.75;;;;;;;7.98;100.00;101372.53;8387836;28;20076;-54
2022/11/30 14:26:09;;;;;;;102.75;40.38;;;;;;;7.97;100.00;101371.66;8348598;28;20510;-52
2022/11/30 14:30:21;;;;;;;98.22;38.17;;;;;;;7.98;100.00;101383.28;8361289;28;20401;-52
2022/11/30 14:34:27;;;;;;;94.22;38.25;;;;;;;7.97;100.00;101376.19;8364787;28;20510;-50
2022/11/30 14:38:30;;;;;;;86.60;37.00;;;;;;;7.96;100.00;101380.69;8364697;28;20585;-52
2022/11/30 14:42:32;;;;;;;94.35;38.75;;;;;;;7.97;100.00;101387.81;8364978;28;20127;-51
2022/11/30 14:46:34;;;;;;;93.57;36.60;;;;;;;7.96;100.00;101378.00;8364581;28;20039;-53
2022/11/30 14:50:36;;;;;;;86.22;35.22;;;;;;;7.97;100.00;101382.41;8350584;28;20037;-50
2022/11/30 14:54:46;;;;;;;92.22;35.58;;;;;;;8.00;100.00;101382.22;8341889;28;20041;-50
2022/11/30 14:58:58;;;;;;;92.43;36.42;;;;;;;8.02;100.00;101383.00;8341982;28;20037;-53
2022/11/30 15:02:58;;;;;;;85.88;36.38;;;;;;;8.04;100.00;101385.56;8342338;28;20048;-50
2022/11/30 15:06:59;;;;;;;91.03;37.80;;;;;;;8.02;100.00;101380.28;8343092;28;20108;-52
2022/11/30 15:11:04;;;;;;;89.10;38.58;;;;;;;7.99;100.00;101379.63;8332647;28;20061;-53
2022/11/30 15:15:25;;;;;;;94.10;39.03;;;;;;;7.98;100.00;101381.47;8332880;28;20045;-51
2022/11/30 15:19:28;;;;;;;91.88;38.40;;;;;;;8.00;100.00;101384.06;8329663;28;20037;-52
2022/11/30 15:23:29;;;;;;;86.65;39.25;;;;;;;8.02;100.00;101384.81;8326964;28;20575;-51
2022/11/30 15:27:29;;;;;;;97.28;38.85;;;;;;;7.98;100.00;101377.91;8326867;28;20452;-50
2022/11/30 15:31:35;;;;;;;103.78;41.80;;;;;;;7.99;100.00;101391.28;8339893;28;20392;-50
2022/11/30 15:35:36;;;;;;;103.68;39.33;;;;;;;7.96;100.00;101394.16;8329426;28;20502;-49
2022/11/30 15:39:37;;;;;;;93.97;38.78;;;;;;;7.97;100.00;101403.13;8332665;28;20434;-49
2022/11/30 15:43:38;;;;;;;100.20;40.78;;;;;;;7.94;100.00;101397.94;8346032;28;20051;-51
2022/11/30 15:47:39;;;;;;;97.95;40.70;;;;;;;7.91;100.00;101399.03;8358015;28;20095;-50
2022/11/30 15:51:42;;;;;;;110.82;44.80;;;;;;;7.92;100.00;101394.47;8323768;28;20038;-50
2022/11/30 15:55:46;;;;;;;106.93;42.97;;;;;;;7.90;100.00;101397.28;8313349;28;20136;-50
2022/11/30 16:00:06;;;;;;;115.25;42.67;;;;;;;7.90;100.00;101402.66;8327615;28;20037;-52
2022/11/30 16:04:06;;;;;;;99.63;41.90;;;;;;;7.92;100.00;101411.50;8313653;28;20045;-53
2022/11/30 16:08:16;;;;;;;104.82;40.72;;;;;;;7.90;100.00;101405.34;8305231;28;20345;-52
2022/11/30 16:12:26;;;;;;;102.40;41.15;;;;;;;7.92;100.00;101411.50;8312435;28;20056;-54
2022/11/30 16:16:30;;;;;;;104.68;42.35;;;;;;;7.93;100.00;101405.16;8323203;28;20034;-52
2022/11/30 16:20:31;;;;;;;106.00;40.43;;;;;;;7.96;100.00;101413.00;8304837;28;20040;-52
2022/11/30 16:24:31;;;;;;;106.03;41.42;;;;;;;7.94;100.00;101408.72;8318913;28;20288;-54
2022/11/30 16:28:32;;;;;;;105.95;41.95;;;;;;;7.93;100.00;101413.22;8324072;28;20193;-51
2022/11/30 16:32:32;;;;;;;101.10;40.70;;;;;;;7.96;100.00;101415.72;8311344;28;20162;-54
2022/11/30 16:36:35;;;;;;;98.18;41.25;;;;;;;7.97;100.00;101419.28;8345694;28;20064;-54
2022/11/30 16:40:36;;;;;;;93.60;39.65;;;;;;;7.97;100.00;101420.13;8334044;28;20045;-53
2022/11/30 16:44:37;;;;;;;97.90;40.25;;;;;;;7.98;100.00;101424.56;8321971;28;20112;-52
2022/11/30 16:48:38;;;;;;;106.13;39.97;;;;;;;7.96;100.00;101423.78;8325830;28;20393;-54
2022/11/30 16:52:40;;;;;;;104.43;41.78;;;;;;;7.96;100.00;101429.16;8318881;28;20140;-50
2022/11/30 16:56:41;;;;;;;99.55;38.60;;;;;;;7.98;100.00;101427.25;8316996;28;20048;-54
2022/11/30 17:00:42;;;;;;;98.18;41.63;;;;;;;7.96;100.00;101434.56;8309076;28;20037;-54
2022/11/30 17:04:42;;;;;;;99.57;41.30;;;;;;;7.94;100.00;101428.41;8328570;28;20495;-53
2022/11/30 17:08:43;;;;;;;106.10;42.40;;;;;;;7.94;100.00;101428.41;8340440;28;20040;-51
2022/11/30 17:12:44;;;;;;;99.28;41.10;;;;;;;7.91;100.00;101436.72;8352602;28;20102;-53
2022/11/30 17:16:44;;;;;;;91.60;38.80;;;;;;;7.92;100.00;101433.03;8344445;28;20037;-52
2022/11/30 17:20:45;;;;;;;93.72;39.35;;;;;;;7.91;100.00;101447.47;8336800;28;20099;-53
2022/11/30 17:24:46;;;;;;;91.60;38.38;;;;;;;7.92;100.00;101441.13;8327951;28;20215;-54
2022/11/30 17:28:46;;;;;;;96.07;39.35;;;;;;;7.90;100.00;101440.34;8340120;28;20033;-51
2022/11/30 17:32:47;;;;;;;96.40;39.28;;;;;;;7.90;100.00;101444.88;8352220;28;20044;-50
2022/11/30 17:36:50;;;;;;;103.85;39.42;;;;;;;7.91;100.00;101447.47;8318492;28;20042;-53
2022/11/30 17:40:50;;;;;;;96.40;40.80;;;;;;;7.93;100.00;101455.47;8306724;28;20052;-50
2022/11/30 17:44:50;;;;;;;90.55;36.25;;;;;;;7.91;100.00;101452.88;8303282;28;20037;-50
2022/11/30 17:48:51;;;;;;;101.55;40.28;;;;;;;7.89;100.00;101454.78;8302045;28;20038;-52
2022/11/30 17:52:52;;;;;;;89.28;37.58;;;;;;;7.91;100.00;101463.63;8303337;28;20034;-50
2022/11/30 17:56:54;;;;;;;96.25;39.33;;;;;;;7.92;100.00;101462.66;8302442;28;20451;-50
2022/11/30 18:00:55;;;;;;;95.35;40.30;;;;;;;7.92;100.00;101465.34;8331209;28;20049;-52
2022/11/30 18:04:55;;;;;;;94.63;39.58;;;;;;;7.94;100.00;101474.16;8333747;28;20139;-50
2022/11/30 18:08:56;;;;;;;102.50;39.30;;;;;;;7.92;100.00;101468.03;8332877;28;20041;-50
2022/11/30 18:12:56;;;;;;;93.00;37.72;;;;;;;7.94;100.00;101467.94;8316283;28;20144;-50
2022/11/30 18:16:57;;;;;;;87.25;36.38;;;;;;;7.95;100.00;101475.03;8325916;28;20048;-51
2022/11/30 18:21:03;;;;;;;88.40;36.05;;;;;;;7.94;100.00;101478.72;8302236;28;20041;-50
2022/11/30 18:25:04;;;;;;;98.53;38.15;;;;;;;7.94;100.00;101471.47;8319156;28;20196;-51
2022/11/30 18:29:06;;;;;;;94.60;37.97;;;;;;;7.95;100.00;101477.75;8332609;28;20045;-51
2022/11/30 18:33:07;;;;;;;87.13;36.28;;;;;;;7.95;100.00;101481.31;8328730;28;20052;-50
2022/11/30 18:37:07;;;;;;;88.75;37.00;;;;;;;7.93;100.00;101479.69;8319221;28;20040;-53
2022/11/30 18:41:08;;;;;;;92.22;36.28;;;;;;;7.93;100.00;101480.53;8303082;28;20049;-52
2022/11/30 18:45:09;;;;;;;72.72;33.88;;;;;;;7.95;100.00;101485.81;8335188;28;20618;-50
2022/11/30 18:49:09;;;;;;;77.70;34.25;;;;;;;7.93;100.00;101487.75;8307385;28;20580;-50
2022/11/30 18:53:10;;;;;;;76.07;32.72;;;;;;;7.92;100.00;101483.31;8311002;28;20034;-50
2022/11/30 18:57:10;;;;;;;83.82;34.83;;;;;;;7.94;100.00;101479.56;8322517;28;20044;-51